North Battleford, Canada
Current Conditions -  °F | °C
As of 2:14 AM on Friday 28 Nov 2014 (Local Time) from CYQW Reporting Station
Light Snow Light Snow  
Wind Chill: -20°   Ceiling: 3100
Heat Index:   Visibility: 2.2mi
Dew Point:   Wind: 25mph
Humidity: 85%   Direction: 70°ENE
Pressure: 29.89"   Gusts: 32mph
Location:  52.78°N, 108.3°W
Report Text: CYQW 280814Z AUTO 07022G28KT 2 1/4SM -SN OVC031 M16/M18 A2989 RMK VIS VRB 1 1/2-3 SLP165
Loading
Personal Weather Stations






























Interactive Weather Map New forecast layout! Learn more

10-Day Weather Forecast

Advertisements
Track Severe Weather on mobile